createdAt,value
2018-04-28T00:00:39.586Z,24.60
2018-04-28T00:01:39.686Z,24.00
2018-04-28T00:02:39.602Z,24.30
2018-04-28T00:03:39.624Z,25.30
2018-04-28T00:04:39.641Z,32.90
2018-04-28T00:05:39.648Z,33.10
2018-04-28T00:06:39.776Z,34.60
2018-04-28T00:07:39.697Z,35.80
2018-04-28T00:08:39.699Z,49.90
2018-04-28T00:09:39.746Z,45.90
2018-04-28T00:10:39.762Z,42.20
2018-04-28T00:11:39.854Z,39.80
2018-04-28T00:12:39.797Z,39.40
2018-04-28T00:13:39.800Z,40.40
2018-04-28T00:14:39.818Z,39.40
2018-04-28T00:15:39.847Z,37.10
2018-04-28T00:16:39.941Z,38.90
2018-04-28T00:17:39.875Z,39.80
2018-04-28T00:18:39.890Z,39.40
2018-04-28T00:19:39.880Z,39.60
2018-04-28T00:20:39.910Z,41.30
2018-04-28T00:21:40.023Z,46.50
2018-04-28T00:22:39.931Z,46.20
2018-04-28T00:23:40.011Z,40.90
2018-04-28T00:24:39.982Z,43.00
2018-04-28T00:25:39.977Z,46.00
2018-04-28T00:26:40.112Z,51.30
2018-04-28T00:27:40.038Z,47.60
2018-04-28T00:28:40.031Z,42.80
2018-04-28T00:29:40.072Z,41.70
2018-04-28T00:30:40.057Z,44.50
2018-04-28T00:31:40.205Z,41.80
2018-04-28T00:32:40.124Z,37.60
2018-04-28T00:33:40.122Z,35.50
2018-04-28T00:34:40.151Z,35.70
2018-04-28T00:35:40.170Z,35.90
2018-04-28T00:36:40.485Z,35.80
2018-04-28T00:37:40.177Z,35.00
2018-04-28T00:38:40.194Z,36.90
2018-04-28T00:39:40.233Z,37.20
2018-04-28T00:40:40.232Z,38.10
2018-04-28T00:41:40.345Z,38.00
2018-04-28T00:42:40.281Z,38.50
2018-04-28T00:43:40.300Z,38.30
2018-04-28T00:44:40.289Z,39.50
2018-04-28T00:45:40.317Z,41.20
2018-04-28T00:46:40.435Z,37.30
2018-04-28T00:47:40.381Z,36.30
2018-04-28T00:48:40.370Z,36.80
2018-04-28T00:49:40.375Z,36.70
2018-04-28T00:50:40.413Z,37.90
2018-04-28T00:51:40.532Z,36.90
2018-04-28T00:52:40.431Z,37.20
2018-04-28T00:53:40.467Z,37.70
2018-04-28T00:54:40.463Z,38.10
2018-04-28T00:55:40.467Z,37.60
2018-04-28T00:56:40.583Z,36.70
2018-04-28T00:57:40.500Z,38.40
2018-04-28T00:58:40.520Z,40.60
2018-04-28T00:59:40.563Z,38.60
2018-04-28T01:00:40.549Z,38.70
2018-04-28T01:01:40.671Z,39.60
2018-04-28T01:02:40.606Z,38.40
2018-04-28T01:03:40.625Z,38.50
2018-04-28T01:04:40.613Z,39.20
2018-04-28T01:05:40.631Z,39.30
2018-04-28T01:06:40.759Z,40.20
2018-04-28T01:07:40.661Z,39.90
2018-04-28T01:08:40.693Z,40.50
2018-04-28T01:09:40.692Z,40.90
2018-04-28T01:10:40.720Z,40.30
2018-04-28T01:11:40.855Z,40.80
2018-04-28T01:12:40.745Z,40.30
2018-04-28T01:13:40.765Z,39.80
2018-04-28T01:14:40.803Z,40.50
2018-04-28T01:15:40.792Z,41.20
2018-04-28T01:16:40.931Z,39.00
2018-04-28T01:17:40.850Z,41.80
2018-04-28T01:18:40.840Z,41.50
2018-04-28T01:19:40.883Z,40.90
2018-04-28T01:20:40.900Z,41.90
2018-04-28T01:21:40.994Z,40.40
2018-04-28T01:22:40.931Z,40.90
2018-04-28T01:23:40.918Z,41.90
2018-04-28T01:24:40.948Z,40.70
2018-04-28T01:25:40.996Z,41.60
2018-04-28T01:26:40.977Z,41.30
2018-04-28T01:27:41.109Z,39.70
2018-04-28T01:28:41.032Z,40.40
2018-04-28T01:29:41.011Z,40.30
2018-04-28T01:30:41.055Z,39.50
2018-04-28T01:31:41.077Z,40.40
2018-04-28T01:32:41.192Z,39.10
2018-04-28T01:33:41.094Z,39.30
2018-04-28T01:34:41.107Z,38.80
2018-04-28T01:35:41.144Z,37.70
2018-04-28T01:36:41.127Z,36.70
2018-04-28T01:37:41.270Z,38.90
2018-04-28T01:38:41.161Z,40.70
2018-04-28T01:39:41.189Z,40.20
2018-04-28T01:40:41.196Z,39.40
2018-04-28T01:41:41.211Z,37.90
2018-04-28T01:42:41.353Z,38.90
2018-04-28T01:43:41.248Z,39.30
2018-04-28T01:44:41.284Z,38.70
2018-04-28T01:45:41.267Z,38.80
2018-04-28T01:46:41.313Z,38.40
2018-04-28T01:47:41.429Z,38.50
2018-04-28T01:48:41.342Z,37.10
2018-04-28T01:49:41.348Z,38.90
2018-04-28T01:50:41.351Z,38.70
2018-04-28T01:51:41.369Z,38.20
2018-04-28T01:52:41.488Z,38.50
2018-04-28T01:53:41.401Z,38.60
2018-04-28T01:54:41.432Z,38.80
2018-04-28T01:55:41.446Z,39.20
2018-04-28T01:56:41.449Z,39.00
2018-04-28T01:57:41.596Z,45.70
2018-04-28T01:58:41.488Z,49.40
2018-04-28T01:59:41.498Z,41.90
2018-04-28T02:00:41.519Z,40.00
2018-04-28T02:01:41.557Z,40.10
2018-04-28T02:02:41.671Z,39.20
2018-04-28T02:03:41.558Z,39.60
2018-04-28T02:04:41.580Z,40.10
2018-04-28T02:05:41.591Z,39.50
2018-04-28T02:06:41.627Z,39.20
2018-04-28T02:07:41.723Z,39.30
2018-04-28T02:08:41.668Z,37.90
2018-04-28T02:09:41.680Z,38.50
2018-04-28T02:10:41.684Z,39.10
2018-04-28T02:11:41.717Z,37.80
2018-04-28T02:12:41.814Z,37.40
2018-04-28T02:13:41.728Z,36.10
2018-04-28T02:14:41.737Z,34.30
2018-04-28T02:15:41.753Z,33.00
2018-04-28T02:16:41.766Z,33.20
2018-04-28T02:17:41.894Z,31.50
2018-04-28T02:18:41.812Z,29.70
2018-04-28T02:19:41.843Z,30.30
2018-04-28T02:20:41.837Z,28.50
2018-04-28T02:21:41.849Z,28.30
2018-04-28T02:22:41.989Z,27.70
2018-04-28T02:23:41.906Z,26.00
2018-04-28T02:24:41.893Z,26.70
2018-04-28T02:25:41.912Z,27.50
2018-04-28T02:26:41.950Z,26.40
2018-04-28T02:27:42.073Z,27.40
2018-04-28T02:28:41.963Z,26.80
2018-04-28T02:29:41.996Z,26.00
2018-04-28T02:30:41.987Z,27.20
2018-04-28T02:31:42.029Z,27.70
2018-04-28T02:32:42.206Z,26.60
2018-04-28T02:33:42.064Z,27.60
2018-04-28T02:34:42.063Z,27.10
2018-04-28T02:35:42.071Z,29.40
2018-04-28T02:36:42.117Z,30.30
2018-04-28T02:37:42.198Z,30.20
2018-04-28T02:38:42.140Z,30.60
2018-04-28T02:39:42.130Z,32.10
2018-04-28T02:40:42.146Z,33.10
2018-04-28T02:41:42.192Z,32.30
2018-04-28T02:42:42.303Z,32.00
2018-04-28T02:43:42.223Z,31.30
2018-04-28T02:44:42.243Z,32.10
2018-04-28T02:45:42.253Z,31.50
2018-04-28T02:46:42.269Z,32.80
2018-04-28T02:47:42.381Z,32.90
2018-04-28T02:48:42.271Z,32.40
2018-04-28T02:49:42.287Z,32.90
2018-04-28T02:50:42.336Z,33.20
2018-04-28T02:51:42.345Z,32.30
2018-04-28T02:52:42.466Z,33.00
2018-04-28T02:53:42.383Z,34.40
2018-04-28T02:54:42.366Z,32.30
2018-04-28T02:55:42.411Z,32.90
2018-04-28T02:56:42.427Z,33.00
2018-04-28T02:57:42.596Z,32.30
2018-04-28T02:58:42.445Z,32.60
2018-04-28T02:59:42.448Z,32.20
2018-04-28T03:00:42.462Z,32.40
2018-04-28T03:01:42.473Z,33.40
2018-04-28T03:02:42.656Z,32.00
2018-04-28T03:03:42.539Z,32.50
2018-04-28T03:04:42.523Z,33.60
2018-04-28T03:05:42.537Z,31.60
2018-04-28T03:06:42.565Z,31.80
2018-04-28T03:07:42.669Z,32.00
2018-04-28T03:08:42.614Z,31.10
2018-04-28T03:09:42.629Z,29.70
2018-04-28T03:10:42.643Z,30.20
2018-04-28T03:11:42.635Z,30.70
2018-04-28T03:12:42.752Z,30.70
2018-04-28T03:13:42.691Z,29.90
2018-04-28T03:14:42.707Z,30.40
2018-04-28T03:15:42.722Z,30.30
2018-04-28T03:16:42.736Z,29.00
2018-04-28T03:17:42.844Z,29.40
2018-04-28T03:18:42.767Z,30.30
2018-04-28T03:19:42.759Z,29.20
2018-04-28T03:20:42.773Z,29.00
2018-04-28T03:21:42.798Z,29.40
2018-04-28T03:22:42.903Z,28.50
2018-04-28T03:23:42.845Z,29.00
2018-04-28T03:24:42.841Z,27.40
2018-04-28T03:25:42.856Z,28.20
2018-04-28T03:26:42.893Z,27.70
2018-04-28T03:27:42.984Z,28.90
2018-04-28T03:28:42.908Z,29.30
2018-04-28T03:29:42.913Z,29.70
2018-04-28T03:30:42.959Z,29.90
2018-04-28T03:31:42.944Z,29.30
2018-04-28T03:32:42.992Z,29.40
2018-04-28T03:33:43.072Z,30.10
2018-04-28T03:34:42.994Z,29.70
2018-04-28T03:35:43.009Z,29.70
2018-04-28T03:36:43.021Z,30.80
2018-04-28T03:37:43.066Z,29.90
2018-04-28T03:38:43.185Z,30.80
2018-04-28T03:39:43.072Z,31.10
2018-04-28T03:40:43.113Z,30.40
2018-04-28T03:41:43.124Z,32.20
2018-04-28T03:42:43.144Z,32.90
2018-04-28T03:43:43.258Z,31.80
2018-04-28T03:44:43.172Z,32.30
2018-04-28T03:45:43.199Z,30.50
2018-04-28T03:46:43.180Z,31.30
2018-04-28T03:47:43.220Z,31.50
2018-04-28T03:48:43.309Z,31.80
2018-04-28T03:49:43.250Z,31.70
2018-04-28T03:50:43.241Z,30.40
2018-04-28T03:51:43.256Z,30.80
2018-04-28T03:52:43.275Z,32.80
2018-04-28T03:53:43.389Z,32.40
2018-04-28T03:54:43.304Z,33.40
2018-04-28T03:55:43.317Z,32.00
2018-04-28T03:56:43.332Z,33.00
2018-04-28T03:57:43.379Z,33.90
2018-04-28T03:58:43.464Z,35.20
2018-04-28T03:59:43.384Z,33.80
2018-04-28T04:00:43.400Z,32.60
2018-04-28T04:01:43.424Z,33.00
2018-04-28T04:02:43.425Z,34.20
2018-04-28T04:03:43.541Z,33.60
2018-04-28T04:04:43.495Z,32.80
2018-04-28T04:05:43.477Z,32.60
2018-04-28T04:06:43.500Z,33.40
2018-04-28T04:07:43.508Z,33.80
2018-04-28T04:08:43.631Z,31.70
2018-04-28T04:09:43.537Z,32.00
2018-04-28T04:10:43.576Z,32.40
2018-04-28T04:11:43.595Z,31.70
2018-04-28T04:12:43.598Z,31.30
2018-04-28T04:13:43.698Z,30.90
2018-04-28T04:14:43.686Z,32.30
2018-04-28T04:15:43.636Z,29.80
2018-04-28T04:16:43.648Z,29.20
2018-04-28T04:17:43.660Z,29.90
2018-04-28T04:18:43.792Z,29.10
2018-04-28T04:19:43.718Z,29.90
2018-04-28T04:20:43.735Z,30.60
2018-04-28T04:21:43.725Z,30.70
2018-04-28T04:22:43.744Z,30.90
2018-04-28T04:23:43.855Z,29.30
2018-04-28T04:24:43.784Z,29.50
2018-04-28T04:25:43.781Z,30.30
2018-04-28T04:26:43.802Z,31.00
2018-04-28T04:27:43.822Z,30.20
2018-04-28T04:28:44.006Z,30.30
2018-04-28T04:29:43.874Z,30.90
2018-04-28T04:30:43.886Z,29.70
2018-04-28T04:31:43.902Z,29.80
2018-04-28T04:32:43.890Z,30.50
2018-04-28T04:33:43.901Z,30.30
2018-04-28T04:34:44.047Z,29.10
2018-04-28T04:35:43.967Z,29.70
2018-04-28T04:36:43.970Z,29.30
2018-04-28T04:37:44.060Z,28.80
2018-04-28T04:38:44.014Z,27.70
2018-04-28T04:39:44.113Z,27.00
2018-04-28T04:40:44.041Z,26.80
2018-04-28T04:41:44.059Z,26.80
2018-04-28T04:42:44.049Z,29.50
2018-04-28T04:43:44.088Z,30.80
2018-04-28T04:44:44.185Z,30.00
2018-04-28T04:45:44.104Z,28.40
2018-04-28T04:46:44.139Z,29.50
2018-04-28T04:47:44.134Z,28.20
2018-04-28T04:48:44.141Z,28.40
2018-04-28T04:49:44.256Z,31.80
2018-04-28T04:50:44.167Z,30.10
2018-04-28T04:51:44.185Z,31.90
2018-04-28T04:52:44.228Z,32.10
2018-04-28T04:53:44.218Z,33.00
2018-04-28T04:54:44.340Z,32.50
2018-04-28T04:55:44.280Z,33.00
2018-04-28T04:56:44.263Z,33.80
2018-04-28T04:57:44.278Z,32.90
2018-04-28T04:58:44.294Z,34.00
2018-04-28T04:59:44.410Z,32.80
2018-04-28T05:00:44.328Z,33.70
2018-04-28T05:01:44.345Z,33.30
2018-04-28T05:02:44.367Z,34.10
2018-04-28T05:03:44.410Z,33.70
2018-04-28T05:04:44.488Z,34.10
2018-04-28T05:05:44.428Z,34.40
2018-04-28T05:06:44.442Z,34.40
2018-04-28T05:07:44.458Z,33.50
2018-04-28T05:08:44.457Z,34.50
2018-04-28T05:09:44.563Z,34.10
2018-04-28T05:10:44.486Z,35.00
2018-04-28T05:11:44.523Z,36.40
2018-04-28T05:12:44.513Z,33.80
2018-04-28T05:13:44.549Z,34.20
2018-04-28T05:14:44.670Z,35.10
2018-04-28T05:15:44.559Z,34.70
2018-04-28T05:16:44.574Z,34.00
2018-04-28T05:17:44.589Z,32.90
2018-04-28T05:18:44.627Z,34.10
2018-04-28T05:19:44.746Z,33.10
2018-04-28T05:20:44.638Z,33.70
2018-04-28T05:21:44.675Z,33.70
2018-04-28T05:22:44.680Z,34.80
2018-04-28T05:23:44.707Z,35.80
2018-04-28T05:24:44.845Z,36.50
2018-04-28T05:25:44.718Z,36.10
2018-04-28T05:26:44.753Z,36.40
2018-04-28T05:27:44.797Z,37.10
2018-04-28T05:28:44.780Z,37.80
2018-04-28T05:29:44.886Z,38.30
2018-04-28T05:30:44.783Z,38.40
2018-04-28T05:31:44.829Z,37.50
2018-04-28T05:32:44.816Z,38.40
2018-04-28T05:33:44.910Z,39.80
2018-04-28T05:34:44.949Z,39.40
2018-04-28T05:35:44.870Z,39.50
2018-04-28T05:36:44.906Z,39.20
2018-04-28T05:37:44.896Z,38.00
2018-04-28T05:38:44.935Z,38.30
2018-04-28T05:39:44.923Z,38.40
2018-04-28T05:40:45.091Z,40.10
2018-04-28T05:41:44.961Z,39.70
2018-04-28T05:42:44.984Z,39.60
2018-04-28T05:43:44.980Z,39.40
2018-04-28T05:44:45.032Z,39.50
2018-04-28T05:45:45.121Z,38.90
2018-04-28T05:46:45.033Z,38.50
2018-04-28T05:47:45.061Z,40.00
2018-04-28T05:48:45.089Z,41.10
2018-04-28T05:49:45.099Z,41.10
2018-04-28T05:50:45.218Z,41.30
2018-04-28T05:51:45.122Z,39.90
2018-04-28T05:52:45.148Z,42.50
2018-04-28T05:53:45.137Z,44.10
2018-04-28T05:54:45.159Z,42.10
2018-04-28T05:55:45.347Z,44.90
2018-04-28T05:56:45.209Z,44.80
2018-04-28T05:57:45.199Z,44.50
2018-04-28T05:58:45.219Z,44.80
2018-04-28T05:59:45.234Z,47.00
2018-04-28T06:00:45.417Z,45.70
2018-04-28T06:01:45.262Z,47.50
2018-04-28T06:02:45.297Z,46.70
2018-04-28T06:03:45.313Z,45.90
2018-04-28T06:04:45.333Z,44.90
2018-04-28T06:05:45.475Z,45.40
2018-04-28T06:06:45.336Z,46.30
2018-04-28T06:07:45.351Z,44.50
2018-04-28T06:08:45.367Z,42.60
2018-04-28T06:09:45.394Z,45.30
2018-04-28T06:10:45.503Z,46.00
2018-04-28T06:11:45.439Z,46.50
2018-04-28T06:12:45.422Z,49.20
2018-04-28T06:13:45.442Z,48.50
2018-04-28T06:14:45.453Z,49.10
2018-04-28T06:15:45.597Z,47.60
2018-04-28T06:16:45.510Z,47.20
2018-04-28T06:17:45.500Z,47.30
2018-04-28T06:18:45.518Z,47.50
2018-04-28T06:19:45.560Z,47.10
2018-04-28T06:20:45.644Z,47.60
2018-04-28T06:21:45.560Z,47.30
2018-04-28T06:22:45.605Z,49.80
2018-04-28T06:23:45.593Z,47.70
2018-04-28T06:24:45.605Z,45.10
2018-04-28T06:25:45.718Z,44.50
2018-04-28T06:26:45.644Z,43.80
2018-04-28T06:27:45.654Z,43.20
2018-04-28T06:28:45.696Z,45.80
2018-04-28T06:29:45.707Z,44.50
2018-04-28T06:30:45.810Z,46.30
2018-04-28T06:31:45.728Z,45.50
2018-04-28T06:32:45.757Z,45.50
2018-04-28T06:33:45.744Z,45.90
2018-04-28T06:34:45.770Z,45.30
2018-04-28T06:35:45.924Z,48.00
2018-04-28T06:36:45.792Z,44.50
2018-04-28T06:37:45.803Z,45.40
2018-04-28T06:38:45.818Z,44.40
2018-04-28T06:39:45.864Z,43.70
2018-04-28T06:40:45.976Z,44.60
2018-04-28T06:41:45.869Z,44.90
2018-04-28T06:42:45.890Z,43.90
2018-04-28T06:43:45.911Z,43.40
2018-04-28T06:44:45.914Z,41.30
2018-04-28T06:45:46.110Z,39.80
2018-04-28T06:46:45.967Z,39.70
2018-04-28T06:47:45.957Z,40.00
2018-04-28T06:48:45.975Z,39.90
2018-04-28T06:49:45.991Z,38.50
2018-04-28T06:50:46.133Z,37.90
2018-04-28T06:51:46.031Z,37.60
2018-04-28T06:52:46.052Z,37.60
2018-04-28T06:53:46.077Z,38.40
2018-04-28T06:54:46.062Z,37.00
2018-04-28T06:55:46.180Z,38.40
2018-04-28T06:56:46.120Z,38.40
2018-04-28T06:57:46.139Z,39.20
2018-04-28T06:58:46.122Z,40.50
2018-04-28T06:59:46.173Z,40.00
2018-04-28T07:00:46.265Z,40.20
2018-04-28T07:01:46.202Z,41.60
2018-04-28T07:02:46.216Z,40.30
2018-04-28T07:03:46.213Z,40.30
2018-04-28T07:04:46.227Z,41.90
2018-04-28T07:05:46.335Z,42.10
2018-04-28T07:06:46.251Z,42.30
2018-04-28T07:07:46.269Z,39.70
2018-04-28T07:08:46.280Z,39.30
2018-04-28T07:09:46.306Z,38.30
2018-04-28T07:10:46.468Z,38.80
2018-04-28T07:11:46.358Z,39.80
2018-04-28T07:12:46.347Z,42.70
2018-04-28T07:13:46.382Z,44.70
2018-04-28T07:14:46.380Z,42.90
2018-04-28T07:15:46.498Z,35.90
2018-04-28T07:16:46.411Z,32.50
2018-04-28T07:17:46.449Z,32.60
2018-04-28T07:18:46.438Z,35.10
2018-04-28T07:19:46.453Z,35.20
2018-04-28T07:20:46.563Z,36.10
2018-04-28T07:21:46.488Z,36.20
2018-04-28T07:22:46.498Z,37.10
2018-04-28T07:23:46.538Z,35.80
2018-04-28T07:24:46.542Z,34.90
2018-04-28T07:25:46.670Z,35.30
2018-04-28T07:26:46.559Z,37.00
2018-04-28T07:27:46.605Z,35.60
2018-04-28T07:28:46.595Z,36.80
2018-04-28T07:29:46.606Z,37.50
2018-04-28T07:30:46.725Z,37.50
2018-04-28T07:31:46.650Z,39.50
2018-04-28T07:32:46.674Z,40.40
2018-04-28T07:33:46.676Z,40.40
2018-04-28T07:34:46.685Z,42.80
2018-04-28T07:35:46.789Z,41.40
2018-04-28T07:36:46.713Z,40.70
2018-04-28T07:37:46.749Z,39.10
2018-04-28T07:38:46.751Z,42.00
2018-04-28T07:39:46.789Z,36.60
2018-04-28T07:40:46.889Z,38.60
2018-04-28T07:41:46.814Z,37.70
2018-04-28T07:42:46.820Z,38.20
2018-04-28T07:43:46.844Z,38.80
2018-04-28T07:44:46.835Z,38.50
2018-04-28T07:45:47.024Z,39.80
2018-04-28T07:46:46.867Z,39.80
2018-04-28T07:47:46.892Z,42.40
2018-04-28T07:48:46.894Z,44.50
2018-04-28T07:49:46.938Z,45.10
2018-04-28T07:50:47.050Z,42.40
2018-04-28T07:51:46.945Z,42.40
2018-04-28T07:52:46.956Z,41.40
2018-04-28T07:53:46.970Z,42.10
2018-04-28T07:54:46.989Z,40.30
2018-04-28T07:55:47.104Z,40.70
2018-04-28T07:56:47.047Z,41.30
2018-04-28T07:57:47.035Z,42.20
2018-04-28T07:58:47.041Z,41.90
2018-04-28T07:59:47.066Z,39.00
2018-04-28T08:00:47.189Z,38.50
2018-04-28T08:01:47.101Z,40.60
2018-04-28T08:02:47.109Z,41.00
2018-04-28T08:03:47.127Z,40.50
2018-04-28T08:04:47.155Z,37.10
2018-04-28T08:05:47.254Z,41.10
2018-04-28T08:06:47.203Z,40.90
2018-04-28T08:07:47.188Z,40.00
2018-04-28T08:08:47.229Z,39.20
2018-04-28T08:09:47.235Z,39.30
2018-04-28T08:10:47.333Z,38.90
2018-04-28T08:11:47.280Z,39.10
2018-04-28T08:12:47.291Z,38.10
2018-04-28T08:13:47.302Z,39.10
2018-04-28T08:14:47.294Z,41.00
2018-04-28T08:15:47.430Z,40.30
2018-04-28T08:16:47.329Z,39.90
2018-04-28T08:17:47.338Z,38.90
2018-04-28T08:18:47.357Z,39.30
2018-04-28T08:19:47.394Z,38.60
2018-04-28T08:20:47.597Z,39.60
2018-04-28T08:21:47.430Z,38.80
2018-04-28T08:22:47.413Z,39.50
2018-04-28T08:23:47.439Z,38.10
2018-04-28T08:24:47.448Z,38.60
2018-04-28T08:25:47.569Z,39.90
2018-04-28T08:26:47.492Z,39.60
2018-04-28T08:27:47.516Z,39.60
2018-04-28T08:28:47.510Z,39.90
2018-04-28T08:29:47.540Z,40.80
2018-04-28T08:30:47.652Z,41.20
2018-04-28T08:31:47.555Z,42.60
2018-04-28T08:32:47.569Z,41.60
2018-04-28T08:33:47.582Z,41.90
2018-04-28T08:34:47.627Z,39.40
2018-04-28T08:35:47.713Z,39.30
2018-04-28T08:36:47.692Z,39.30
2018-04-28T08:37:47.652Z,40.00
2018-04-28T08:38:47.689Z,39.80
2018-04-28T08:39:47.704Z,37.30
2018-04-28T08:40:47.787Z,39.80
2018-04-28T08:41:47.707Z,32.00
2018-04-28T08:42:47.734Z,32.80
2018-04-28T08:43:47.764Z,37.70
2018-04-28T08:44:47.757Z,39.40
2018-04-28T08:45:47.868Z,38.80
2018-04-28T08:46:47.780Z,37.80
2018-04-28T08:47:47.798Z,40.00
2018-04-28T08:48:47.836Z,41.10
2018-04-28T08:49:47.833Z,41.40
2018-04-28T08:50:47.845Z,41.60
2018-04-28T08:51:47.961Z,41.80
2018-04-28T08:52:47.888Z,38.60
2018-04-28T08:53:47.902Z,39.70
2018-04-28T08:54:47.906Z,39.40
2018-04-28T08:55:47.927Z,36.50
2018-04-28T08:56:48.040Z,37.30
2018-04-28T08:57:47.959Z,37.60
2018-04-28T08:58:47.992Z,37.70
2018-04-28T08:59:47.985Z,37.20
2018-04-28T09:00:48.028Z,38.90
2018-04-28T09:01:48.115Z,39.30
2018-04-28T09:02:48.057Z,42.10
2018-04-28T09:03:48.113Z,39.90
2018-04-28T09:04:48.059Z,40.10
2018-04-28T09:05:48.100Z,40.40
2018-04-28T09:06:48.249Z,40.40
2018-04-28T09:07:48.109Z,41.80
2018-04-28T09:08:48.138Z,42.20
2018-04-28T09:09:48.162Z,41.90
2018-04-28T09:10:48.152Z,42.20
2018-04-28T09:11:48.269Z,40.60
2018-04-28T09:12:48.208Z,39.40
2018-04-28T09:13:48.201Z,39.40
2018-04-28T09:14:48.229Z,40.00
2018-04-28T09:15:48.254Z,38.70
2018-04-28T09:16:48.345Z,39.40
2018-04-28T09:17:48.254Z,36.60
2018-04-28T09:18:48.304Z,37.30
2018-04-28T09:19:48.302Z,39.40
2018-04-28T09:20:48.345Z,40.00
2018-04-28T09:21:48.445Z,41.60
2018-04-28T09:22:48.339Z,40.20
2018-04-28T09:23:48.351Z,41.20
2018-04-28T09:24:48.377Z,41.60
2018-04-28T09:25:48.380Z,41.60
2018-04-28T09:26:48.525Z,39.70
2018-04-28T09:27:48.441Z,37.60
2018-04-28T09:28:48.431Z,35.80
2018-04-28T09:29:48.445Z,39.20
2018-04-28T09:30:48.460Z,39.50
2018-04-28T09:31:48.578Z,41.20
2018-04-28T09:32:48.520Z,39.40
2018-04-28T09:33:48.536Z,38.10
2018-04-28T09:34:48.555Z,40.60
2018-04-28T09:35:48.540Z,37.20
2018-04-28T09:36:48.682Z,36.90
2018-04-28T09:37:48.597Z,36.10
2018-04-28T09:38:48.587Z,34.70
2018-04-28T09:39:48.608Z,34.60
2018-04-28T09:40:48.642Z,34.40
2018-04-28T09:41:48.733Z,33.70
2018-04-28T09:42:48.656Z,33.10
2018-04-28T09:43:48.663Z,33.70
2018-04-28T09:44:48.707Z,31.20
2018-04-28T09:45:48.722Z,32.60
2018-04-28T09:46:48.813Z,30.80
2018-04-28T09:47:48.753Z,31.60
2018-04-28T09:48:48.769Z,32.50
2018-04-28T09:49:48.754Z,32.50
2018-04-28T09:50:48.797Z,32.20
2018-04-28T09:51:48.887Z,31.50
2018-04-28T09:52:48.803Z,31.90
2018-04-28T09:53:48.872Z,34.00
2018-04-28T09:54:48.867Z,33.60
2018-04-28T09:55:48.862Z,34.50
2018-04-28T09:56:48.968Z,34.10
2018-04-28T09:57:48.908Z,34.20
2018-04-28T09:58:48.921Z,34.30
2018-04-28T09:59:48.911Z,32.90
2018-04-28T10:00:48.952Z,34.20
2018-04-28T10:01:49.041Z,35.00
2018-04-28T10:02:48.988Z,35.90
2018-04-28T10:03:48.974Z,35.40
2018-04-28T10:04:49.018Z,34.10
2018-04-28T10:05:49.068Z,33.20
2018-04-28T10:06:49.132Z,34.00
2018-04-28T10:07:49.039Z,33.50
2018-04-28T10:08:49.052Z,35.40
2018-04-28T10:09:49.084Z,37.80
2018-04-28T10:10:49.084Z,37.50
2018-04-28T10:11:49.250Z,40.10
2018-04-28T10:12:49.197Z,44.00
2018-04-28T10:13:49.144Z,42.60
2018-04-28T10:14:49.147Z,33.60
2018-04-28T10:15:49.166Z,35.10
2018-04-28T10:16:49.291Z,33.50
2018-04-28T10:17:49.196Z,34.50
2018-04-28T10:18:49.221Z,34.60
2018-04-28T10:19:49.226Z,33.40
2018-04-28T10:20:49.244Z,35.00
2018-04-28T10:21:49.387Z,35.90
2018-04-28T10:22:49.274Z,37.60
2018-04-28T10:23:49.291Z,38.50
2018-04-28T10:24:49.333Z,37.00
2018-04-28T10:25:49.318Z,35.80
2018-04-28T10:26:49.432Z,33.50
2018-04-28T10:27:49.379Z,33.30
2018-04-28T10:28:49.370Z,33.50
2018-04-28T10:29:49.408Z,32.80
2018-04-28T10:30:49.437Z,31.60
2018-04-28T10:31:49.541Z,33.20
2018-04-28T10:32:49.430Z,33.50
2018-04-28T10:33:49.449Z,31.90
2018-04-28T10:34:49.485Z,32.80
2018-04-28T10:35:49.508Z,32.30
2018-04-28T10:36:49.605Z,32.00
2018-04-28T10:37:49.522Z,32.30
2018-04-28T10:38:49.523Z,32.80
2018-04-28T10:39:49.570Z,32.40
2018-04-28T10:40:49.590Z,32.60
2018-04-28T10:41:49.723Z,31.90
2018-04-28T10:42:49.617Z,31.30
2018-04-28T10:43:49.611Z,30.20
2018-04-28T10:44:49.635Z,30.50
2018-04-28T10:45:49.639Z,30.10
2018-04-28T10:46:49.777Z,31.50
2018-04-28T10:47:49.679Z,30.30
2018-04-28T10:48:49.682Z,30.00
2018-04-28T10:49:49.709Z,30.10
2018-04-28T10:50:49.748Z,29.90
2018-04-28T10:51:49.833Z,31.00
2018-04-28T10:52:49.758Z,30.60
2018-04-28T10:53:49.881Z,31.40
2018-04-28T10:54:49.806Z,31.50
2018-04-28T10:55:49.828Z,31.80
2018-04-28T10:56:49.843Z,31.30
2018-04-28T10:57:49.995Z,29.90
2018-04-28T10:58:49.856Z,29.90
2018-04-28T10:59:49.880Z,30.70
2018-04-28T11:00:49.890Z,31.10
2018-04-28T11:01:49.895Z,31.00
2018-04-28T11:02:50.008Z,31.20
2018-04-28T11:03:49.935Z,31.20
2018-04-28T11:04:49.944Z,31.50
2018-04-28T11:05:49.968Z,30.50
2018-04-28T11:06:49.974Z,31.20
2018-04-28T11:07:50.115Z,30.50
2018-04-28T11:08:50.009Z,30.20
2018-04-28T11:09:50.022Z,29.70
2018-04-28T11:10:50.042Z,29.90
2018-04-28T11:11:50.089Z,28.70
2018-04-28T11:12:50.179Z,29.00
2018-04-28T11:13:50.117Z,28.90
2018-04-28T11:14:50.133Z,29.40
2018-04-28T11:15:50.135Z,28.80
2018-04-28T11:16:50.166Z,28.20
2018-04-28T11:17:50.264Z,27.70
2018-04-28T11:18:50.177Z,29.50
2018-04-28T11:19:50.246Z,29.30
2018-04-28T11:20:50.197Z,29.50
2018-04-28T11:21:50.227Z,29.50
2018-04-28T11:22:50.334Z,29.10
2018-04-28T11:23:50.265Z,30.80
2018-04-28T11:24:50.273Z,27.70
2018-04-28T11:25:50.335Z,25.60
2018-04-28T11:26:50.332Z,25.00
2018-04-28T11:27:50.500Z,24.20
2018-04-28T11:28:50.338Z,23.10
2018-04-28T11:29:50.388Z,23.40
2018-04-28T11:30:50.387Z,24.40
2018-04-28T11:31:50.404Z,25.60
2018-04-28T11:32:50.610Z,25.20
2018-04-28T11:33:50.426Z,23.90
2018-04-28T11:34:50.469Z,24.30
2018-04-28T11:35:50.489Z,24.80
2018-04-28T11:36:50.497Z,22.10
2018-04-28T11:37:50.596Z,24.90
2018-04-28T11:38:50.527Z,24.30
2018-04-28T11:39:50.555Z,25.10
2018-04-28T11:40:50.559Z,26.00
2018-04-28T11:41:50.572Z,24.90
2018-04-28T11:42:50.683Z,23.70
2018-04-28T11:43:50.605Z,22.70
2018-04-28T11:44:50.646Z,21.70
2018-04-28T11:45:50.636Z,21.80
2018-04-28T11:46:50.657Z,22.40
2018-04-28T11:47:50.780Z,23.30
2018-04-28T11:48:50.697Z,22.40
2018-04-28T11:49:50.715Z,21.40
2018-04-28T11:50:50.726Z,20.20
2018-04-28T11:51:50.745Z,20.20
2018-04-28T11:52:50.859Z,19.70
2018-04-28T11:53:50.788Z,20.30
2018-04-28T11:54:50.829Z,19.00
2018-04-28T11:55:50.820Z,19.40
2018-04-28T11:56:50.871Z,19.30
2018-04-28T11:57:50.954Z,19.30
2018-04-28T11:58:50.876Z,19.20
2018-04-28T11:59:50.922Z,19.60
2018-04-28T12:00:50.926Z,19.00
2018-04-28T12:01:50.930Z,19.30
2018-04-28T12:02:51.064Z,20.20
2018-04-28T12:03:50.978Z,20.30
2018-04-28T12:04:50.985Z,18.80
2018-04-28T12:05:51.082Z,19.50
2018-04-28T12:06:51.052Z,19.70
2018-04-28T12:07:51.154Z,19.10
2018-04-28T12:08:51.064Z,18.60
2018-04-28T12:09:51.107Z,19.60
2018-04-28T12:10:51.113Z,20.20
2018-04-28T12:11:51.145Z,19.60
2018-04-28T12:12:51.236Z,19.60
2018-04-28T12:13:51.173Z,21.50
2018-04-28T12:14:51.174Z,21.90
2018-04-28T12:15:51.221Z,20.60
2018-04-28T12:16:51.219Z,20.50
2018-04-28T12:17:51.333Z,19.40
2018-04-28T12:18:51.253Z,20.50
2018-04-28T12:19:51.269Z,22.20
2018-04-28T12:20:51.291Z,20.80
2018-04-28T12:21:51.308Z,20.40
2018-04-28T12:22:51.450Z,19.10
2018-04-28T12:23:51.366Z,19.80
2018-04-28T12:24:51.363Z,20.40
2018-04-28T12:25:51.417Z,19.30
2018-04-28T12:26:51.436Z,19.00
2018-04-28T12:27:51.576Z,19.30
2018-04-28T12:28:51.471Z,21.30
2018-04-28T12:29:51.565Z,22.90
2018-04-28T12:30:51.511Z,21.50
2018-04-28T12:31:51.505Z,21.90
2018-04-28T12:32:51.627Z,21.00
2018-04-28T12:33:51.572Z,19.80
2018-04-28T12:34:51.591Z,20.90
2018-04-28T12:35:51.711Z,21.80
2018-04-28T12:36:51.616Z,20.40
2018-04-28T12:37:51.728Z,20.10
2018-04-28T12:38:51.646Z,20.80
2018-04-28T12:39:51.678Z,21.80
2018-04-28T12:40:51.712Z,22.40
2018-04-28T12:41:51.720Z,22.40
2018-04-28T12:42:51.903Z,22.40
2018-04-28T12:43:51.749Z,23.30
2018-04-28T12:44:51.792Z,22.40
2018-04-28T12:45:51.811Z,21.50
2018-04-28T12:46:51.824Z,22.20
2018-04-28T12:47:51.936Z,20.50
2018-04-28T12:48:51.851Z,19.30
2018-04-28T12:49:51.899Z,19.30
2018-04-28T12:50:51.947Z,19.50
2018-04-28T12:51:51.938Z,18.90
2018-04-28T12:52:52.093Z,19.30